sensor_id;sensor_type;location;lat;lon;timestamp;pressure;altitude;pressure_sealevel;temperature;humidity
40013;BME280;37387;42.672;23.334;2023-07-16T00:00:21;946.7;;;24.3;100.0
40013;BME280;37387;42.672;23.334;2023-07-16T00:08:21;946.6;;;24.2;100.0
40013;BME280;37387;42.672;23.334;2023-07-16T00:11:21;946.7;;;24.1;100.0
40013;BME280;37387;42.672;23.334;2023-07-16T00:12:21;946.7;;;24.2;100.0
40013;BME280;37387;42.672;23.334;2023-07-16T00:13:21;946.6;;;24.1;100.0
40013;BME280;37387;42.672;23.334;2023-07-16T00:19:21;946.7;;;24.2;100.0
40013;BME280;37387;42.672;23.334;2023-07-16T00:21:21;946.6;;;24.1;100.0
40013;BME280;37387;42.672;23.334;2023-07-16T00:23:21;946.6;;;24.2;100.0
40013;BME280;37387;42.672;23.334;2023-07-16T00:24:21;946.6;;;24.1;100.0
40013;BME280;37387;42.672;23.334;2023-07-16T00:28:21;946.7;;;24.0;100.0
40013;BME280;37387;42.672;23.334;2023-07-16T00:47:21;946.7;;;23.9;100.0
40013;BME280;37387;42.672;23.334;2023-07-16T00:51:21;946.6;;;24.0;100.0
40013;BME280;37387;42.672;23.334;2023-07-16T00:52:21;946.6;;;23.9;100.0
40013;BME280;37387;42.672;23.334;2023-07-16T00:54:21;946.6;;;23.8;100.0
40013;BME280;37387;42.672;23.334;2023-07-16T00:55:21;946.6;;;23.9;100.0
40013;BME280;37387;42.672;23.334;2023-07-16T01:02:21;946.6;;;23.8;100.0
40013;BME280;37387;42.672;23.334;2023-07-16T01:08:22;946.6;;;23.7;100.0
40013;BME280;37387;42.672;23.334;2023-07-16T01:10:21;946.6;;;23.8;100.0
40013;BME280;37387;42.672;23.334;2023-07-16T01:26:27;946.6;;;23.7;100.0
40013;BME280;37387;42.672;23.334;2023-07-16T01:31:21;946.7;;;23.6;100.0
40013;BME280;37387;42.672;23.334;2023-07-16T01:35:21;946.6;;;23.7;100.0
40013;BME280;37387;42.672;23.334;2023-07-16T01:36:21;946.6;;;23.6;100.0
40013;BME280;37387;42.672;23.334;2023-07-16T01:38:21;946.7;;;23.5;100.0
40013;BME280;37387;42.672;23.334;2023-07-16T01:41:21;946.6;;;23.6;100.0
40013;BME280;37387;42.672;23.334;2023-07-16T01:42:21;946.6;;;23.5;100.0
40013;BME280;37387;42.672;23.334;2023-07-16T01:47:22;946.6;;;23.4;100.0
40013;BME280;37387;42.672;23.334;2023-07-16T01:50:21;946.7;;;23.3;100.0
40013;BME280;37387;42.672;23.334;2023-07-16T01:51:21;946.7;;;23.4;100.0
40013;BME280;37387;42.672;23.334;2023-07-16T01:52:21;946.6;;;23.3;100.0
40013;BME280;37387;42.672;23.334;2023-07-16T01:53:21;946.6;;;23.4;100.0
40013;BME280;37387;42.672;23.334;2023-07-16T01:57:21;946.7;;;23.5;100.0
40013;BME280;37387;42.672;23.334;2023-07-16T01:58:21;946.7;;;23.4;100.0
40013;BME280;37387;42.672;23.334;2023-07-16T02:02:21;946.7;;;23.3;100.0
40013;BME280;37387;42.672;23.334;2023-07-16T02:03:21;946.7;;;23.2;100.0
40013;BME280;37387;42.672;23.334;2023-07-16T02:07:21;946.8;;;23.3;100.0
40013;BME280;37387;42.672;23.334;2023-07-16T02:08:21;946.7;;;23.2;100.0
40013;BME280;37387;42.672;23.334;2023-07-16T02:09:22;946.7;;;23.1;100.0
40013;BME280;37387;42.672;23.334;2023-07-16T02:11:21;946.7;;;23.0;100.0
40013;BME280;37387;42.672;23.334;2023-07-16T02:13:21;946.7;;;23.1;100.0
40013;BME280;37387;42.672;23.334;2023-07-16T02:14:21;946.7;;;23.0;100.0
40013;BME280;37387;42.672;23.334;2023-07-16T02:16:21;946.7;;;22.9;100.0
40013;BME280;37387;42.672;23.334;2023-07-16T02:17:21;946.7;;;23.0;100.0
40013;BME280;37387;42.672;23.334;2023-07-16T02:19:21;946.7;;;22.9;100.0
40013;BME280;37387;42.672;23.334;2023-07-16T02:25:21;946.7;;;22.8;100.0
40013;BME280;37387;42.672;23.334;2023-07-16T02:33:21;946.7;;;22.9;100.0
40013;BME280;37387;42.672;23.334;2023-07-16T02:35:21;946.8;;;22.8;100.0
40013;BME280;37387;42.672;23.334;2023-07-16T02:41:21;946.8;;;22.7;100.0
40013;BME280;37387;42.672;23.334;2023-07-16T02:43:21;946.8;;;22.6;100.0
40013;BME280;37387;42.672;23.334;2023-07-16T02:50:21;946.8;;;22.5;100.0
40013;BME280;37387;42.672;23.334;2023-07-16T02:56:21;946.8;;;22.4;100.0
40013;BME280;37387;42.672;23.334;2023-07-16T02:58:21;946.8;;;22.5;100.0
40013;BME280;37387;42.672;23.334;2023-07-16T03:00:21;946.8;;;22.4;100.0
40013;BME280;37387;42.672;23.334;2023-07-16T03:05:21;946.8;;;22.5;100.0
40013;BME280;37387;42.672;23.334;2023-07-16T03:12:21;946.8;;;22.4;100.0
40013;BME280;37387;42.672;23.334;2023-07-16T03:15:21;946.9;;;22.5;100.0
40013;BME280;37387;42.672;23.334;2023-07-16T03:20:21;946.9;;;22.6;100.0
40013;BME280;37387;42.672;23.334;2023-07-16T03:25:21;946.9;;;22.5;100.0
40013;BME280;37387;42.672;23.334;2023-07-16T03:29:21;947.0;;;22.6;100.0
40013;BME280;37387;42.672;23.334;2023-07-16T03:31:21;947.0;;;22.7;100.0
40013;BME280;37387;42.672;23.334;2023-07-16T03:32:21;947.0;;;22.9;100.0
40013;BME280;37387;42.672;23.334;2023-07-16T03:33:21;947.0;;;23.0;100.0
40013;BME280;37387;42.672;23.334;2023-07-16T03:34:21;947.0;;;23.2;100.0
40013;BME280;37387;42.672;23.334;2023-07-16T03:35:21;947.0;;;23.3;100.0
40013;BME280;37387;42.672;23.334;2023-07-16T03:36:21;947.0;;;23.5;100.0
40013;BME280;37387;42.672;23.334;2023-07-16T03:37:21;947.0;;;23.6;100.0
40013;BME280;37387;42.672;23.334;2023-07-16T03:38:21;947.0;;;23.8;100.0
40013;BME280;37387;42.672;23.334;2023-07-16T03:39:21;947.0;;;23.9;100.0
40013;BME280;37387;42.672;23.334;2023-07-16T03:40:23;947.1;;;24.2;100.0
40013;BME280;37387;42.672;23.334;2023-07-16T03:41:21;947.1;;;24.3;100.0
40013;BME280;37387;42.672;23.334;2023-07-16T03:42:21;947.1;;;24.1;100.0
40013;BME280;37387;42.672;23.334;2023-07-16T03:43:21;947.1;;;24.2;100.0
40013;BME280;37387;42.672;23.334;2023-07-16T03:44:21;947.1;;;24.7;100.0
40013;BME280;37387;42.672;23.334;2023-07-16T03:46:21;947.1;;;25.1;100.0
40013;BME280;37387;42.672;23.334;2023-07-16T03:47:21;947.2;;;25.5;100.0
40013;BME280;37387;42.672;23.334;2023-07-16T03:48:21;947.2;;;25.9;100.0
40013;BME280;37387;42.672;23.334;2023-07-16T03:49:21;947.2;;;26.4;100.0
40013;BME280;37387;42.672;23.334;2023-07-16T03:50:21;947.2;;;26.8;95.9
40013;BME280;37387;42.672;23.334;2023-07-16T03:51:21;947.2;;;26.9;95.9
40013;BME280;37387;42.672;23.334;2023-07-16T03:52:21;947.3;;;27.1;93.7
40013;BME280;37387;42.672;23.334;2023-07-16T03:53:21;947.3;;;27.4;90.0
40013;BME280;37387;42.672;23.334;2023-07-16T03:54:21;947.3;;;27.5;90.0
40013;BME280;37387;42.672;23.334;2023-07-16T03:55:21;947.3;;;27.2;87.6
40013;BME280;37387;42.672;23.334;2023-07-16T03:56:21;947.3;;;27.4;89.5
40013;BME280;37387;42.672;23.334;2023-07-16T03:57:21;947.3;;;27.8;90.5
40013;BME280;37387;42.672;23.334;2023-07-16T03:58:21;947.3;;;28.0;86.1
40013;BME280;37387;42.672;23.334;2023-07-16T04:00:21;947.3;;;28.4;83.4
40013;BME280;37387;42.672;23.334;2023-07-16T04:01:21;947.3;;;28.6;80.9
40013;BME280;37387;42.672;23.334;2023-07-16T04:02:21;947.3;;;28.5;79.3
40013;BME280;37387;42.672;23.334;2023-07-16T04:03:21;947.3;;;28.6;79.2
40013;BME280;37387;42.672;23.334;2023-07-16T04:04:21;947.3;;;28.9;77.8
40013;BME280;37387;42.672;23.334;2023-07-16T04:06:21;947.3;;;28.4;76.7
40013;BME280;37387;42.672;23.334;2023-07-16T04:07:21;947.3;;;28.7;79.0
40013;BME280;37387;42.672;23.334;2023-07-16T04:08:21;947.3;;;28.9;78.5
40013;BME280;37387;42.672;23.334;2023-07-16T04:09:21;947.3;;;29.0;76.0
40013;BME280;37387;42.672;23.334;2023-07-16T04:11:21;947.4;;;28.2;75.5
40013;BME280;37387;42.672;23.334;2023-07-16T04:12:21;947.3;;;28.3;78.0
40013;BME280;37387;42.672;23.334;2023-07-16T04:13:21;947.3;;;29.0;80.2
40013;BME280;37387;42.672;23.334;2023-07-16T04:14:21;947.4;;;29.5;76.7
40013;BME280;37387;42.672;23.334;2023-07-16T04:15:21;947.4;;;29.8;72.5
40013;BME280;37387;42.672;23.334;2023-07-16T04:16:21;947.4;;;30.2;70.3
40013;BME280;37387;42.672;23.334;2023-07-16T04:17:21;947.4;;;29.7;68.0
40013;BME280;37387;42.672;23.334;2023-07-16T04:19:21;947.4;;;29.9;71.7
40013;BME280;37387;42.672;23.334;2023-07-16T04:20:21;947.4;;;30.4;68.1
40013;BME280;37387;42.672;23.334;2023-07-16T04:21:21;947.4;;;30.7;66.8
40013;BME280;37387;42.672;23.334;2023-07-16T04:22:21;947.4;;;31.0;65.2
40013;BME280;37387;42.672;23.334;2023-07-16T04:23:21;947.4;;;30.7;63.8
40013;BME280;37387;42.672;23.334;2023-07-16T04:24:21;947.5;;;31.1;65.0
40013;BME280;37387;42.672;23.334;2023-07-16T04:26:21;947.5;;;31.4;63.3
40013;BME280;37387;42.672;23.334;2023-07-16T04:27:21;947.5;;;31.8;62.3
40013;BME280;37387;42.672;23.334;2023-07-16T04:28:21;947.5;;;31.6;60.9
40013;BME280;37387;42.672;23.334;2023-07-16T04:29:21;947.5;;;31.9;61.0
40013;BME280;37387;42.672;23.334;2023-07-16T04:31:21;947.5;;;32.2;58.6
40013;BME280;37387;42.672;23.334;2023-07-16T04:32:21;947.5;;;31.8;58.6
40013;BME280;37387;42.672;23.334;2023-07-16T04:33:21;947.5;;;31.7;60.4
40013;BME280;37387;42.672;23.334;2023-07-16T04:34:21;947.6;;;32.0;60.1
40013;BME280;37387;42.672;23.334;2023-07-16T04:36:21;947.5;;;32.2;59.4
40013;BME280;37387;42.672;23.334;2023-07-16T04:37:21;947.6;;;32.3;58.9
40013;BME280;37387;42.672;23.334;2023-07-16T04:38:21;947.5;;;32.5;58.0
40013;BME280;37387;42.672;23.334;2023-07-16T04:39:21;947.5;;;32.7;57.3
40013;BME280;37387;42.672;23.334;2023-07-16T04:40:21;947.6;;;32.8;57.1
40013;BME280;37387;42.672;23.334;2023-07-16T04:41:21;947.6;;;32.6;56.6
40013;BME280;37387;42.672;23.334;2023-07-16T04:42:21;947.6;;;32.5;56.6
40013;BME280;37387;42.672;23.334;2023-07-16T04:43:21;947.5;;;32.8;57.1
40013;BME280;37387;42.672;23.334;2023-07-16T04:44:21;947.6;;;32.2;55.8
40013;BME280;37387;42.672;23.334;2023-07-16T04:46:21;947.6;;;32.0;58.0
40013;BME280;37387;42.672;23.334;2023-07-16T04:47:21;947.6;;;31.4;57.7
40013;BME280;37387;42.672;23.334;2023-07-16T04:48:21;947.6;;;31.8;59.5
40013;BME280;37387;42.672;23.334;2023-07-16T04:49:21;947.6;;;32.3;59.4
40013;BME280;37387;42.672;23.334;2023-07-16T04:50:21;947.7;;;32.4;57.6
40013;BME280;37387;42.672;23.334;2023-07-16T04:51:21;947.6;;;32.5;57.0
40013;BME280;37387;42.672;23.334;2023-07-16T04:52:21;947.6;;;32.3;56.7
40013;BME280;37387;42.672;23.334;2023-07-16T04:53:21;947.7;;;32.0;56.8
40013;BME280;37387;42.672;23.334;2023-07-16T04:54:21;947.7;;;32.2;57.6
40013;BME280;37387;42.672;23.334;2023-07-16T04:55:21;947.6;;;32.4;57.1
40013;BME280;37387;42.672;23.334;2023-07-16T04:56:21;947.7;;;32.2;56.9
40013;BME280;37387;42.672;23.334;2023-07-16T04:57:21;947.7;;;32.0;56.9
40013;BME280;37387;42.672;23.334;2023-07-16T04:58:21;947.6;;;31.9;58.3
40013;BME280;37387;42.672;23.334;2023-07-16T04:59:21;947.6;;;31.7;57.7
40013;BME280;37387;42.672;23.334;2023-07-16T05:00:21;947.6;;;31.6;58.8
40013;BME280;37387;42.672;23.334;2023-07-16T05:01:21;947.6;;;31.9;59.3
40013;BME280;37387;42.672;23.334;2023-07-16T05:02:21;947.6;;;32.0;58.9
40013;BME280;37387;42.672;23.334;2023-07-16T05:03:21;947.7;;;32.1;58.6
40013;BME280;37387;42.672;23.334;2023-07-16T05:04:21;947.6;;;32.3;58.1
40013;BME280;37387;42.672;23.334;2023-07-16T05:05:21;947.7;;;32.2;56.0
40013;BME280;37387;42.672;23.334;2023-07-16T05:06:21;947.7;;;31.8;58.6
40013;BME280;37387;42.672;23.334;2023-07-16T05:08:21;947.7;;;32.4;58.5
40013;BME280;37387;42.672;23.334;2023-07-16T05:10:21;947.7;;;32.6;56.9
40013;BME280;37387;42.672;23.334;2023-07-16T05:11:21;947.7;;;32.7;56.1
40013;BME280;37387;42.672;23.334;2023-07-16T05:12:21;947.6;;;33.1;54.9
40013;BME280;37387;42.672;23.334;2023-07-16T05:13:21;947.7;;;33.5;53.9
40013;BME280;37387;42.672;23.334;2023-07-16T05:14:21;947.7;;;33.8;53.1
40013;BME280;37387;42.672;23.334;2023-07-16T05:15:21;947.7;;;33.3;52.0
40013;BME280;37387;42.672;23.334;2023-07-16T05:16:21;947.7;;;33.8;52.9
40013;BME280;37387;42.672;23.334;2023-07-16T05:17:21;947.7;;;33.6;52.0
40013;BME280;37387;42.672;23.334;2023-07-16T05:18:21;947.7;;;33.4;52.4
40013;BME280;37387;42.672;23.334;2023-07-16T05:19:21;947.7;;;33.5;52.5
40013;BME280;37387;42.672;23.334;2023-07-16T05:20:21;947.7;;;33.7;52.1
40013;BME280;37387;42.672;23.334;2023-07-16T05:21:21;947.7;;;33.5;51.9
40013;BME280;37387;42.672;23.334;2023-07-16T05:22:21;947.7;;;33.7;52.0
40013;BME280;37387;42.672;23.334;2023-07-16T05:23:21;947.6;;;33.8;51.8
40013;BME280;37387;42.672;23.334;2023-07-16T05:24:21;947.7;;;33.4;51.9
40013;BME280;37387;42.672;23.334;2023-07-16T05:25:21;947.7;;;33.0;52.0
40013;BME280;37387;42.672;23.334;2023-07-16T05:26:21;947.6;;;32.5;52.3
40013;BME280;37387;42.672;23.334;2023-07-16T05:27:21;947.7;;;31.2;55.1
40013;BME280;37387;42.672;23.334;2023-07-16T05:28:21;947.7;;;31.6;59.8
40013;BME280;37387;42.672;23.334;2023-07-16T05:29:21;947.7;;;31.7;58.1
40013;BME280;37387;42.672;23.334;2023-07-16T05:30:21;947.7;;;32.1;57.9
40013;BME280;37387;42.672;23.334;2023-07-16T05:31:21;947.7;;;32.0;56.8
40013;BME280;37387;42.672;23.334;2023-07-16T05:32:21;947.7;;;31.2;61.3
40013;BME280;37387;42.672;23.334;2023-07-16T05:33:21;947.7;;;31.7;61.3
40013;BME280;37387;42.672;23.334;2023-07-16T05:34:21;947.7;;;32.0;57.9
40013;BME280;37387;42.672;23.334;2023-07-16T05:35:21;947.7;;;32.2;57.4
40013;BME280;37387;42.672;23.334;2023-07-16T05:36:21;947.7;;;32.3;56.4
40013;BME280;37387;42.672;23.334;2023-07-16T05:37:21;947.7;;;32.1;56.2
40013;BME280;37387;42.672;23.334;2023-07-16T05:38:21;947.7;;;32.4;56.8
40013;BME280;37387;42.672;23.334;2023-07-16T05:39:21;947.7;;;31.8;55.9
40013;BME280;37387;42.672;23.334;2023-07-16T05:40:21;947.7;;;32.2;58.2
40013;BME280;37387;42.672;23.334;2023-07-16T05:41:21;947.7;;;32.9;57.0
40013;BME280;37387;42.672;23.334;2023-07-16T05:42:21;947.7;;;32.7;54.2
40013;BME280;37387;42.672;23.334;2023-07-16T05:44:21;947.7;;;33.5;54.0
40013;BME280;37387;42.672;23.334;2023-07-16T05:45:21;947.8;;;33.8;51.2
40013;BME280;37387;42.672;23.334;2023-07-16T05:46:21;947.8;;;34.0;51.2
40013;BME280;37387;42.672;23.334;2023-07-16T05:47:21;947.8;;;34.2;50.7
40013;BME280;37387;42.672;23.334;2023-07-16T05:50:21;947.8;;;34.5;50.4
40013;BME280;37387;42.672;23.334;2023-07-16T05:51:21;947.9;;;34.3;49.8
40013;BME280;37387;42.672;23.334;2023-07-16T05:52:21;947.9;;;34.2;50.1
40013;BME280;37387;42.672;23.334;2023-07-16T05:53:21;947.9;;;34.0;50.3
40013;BME280;37387;42.672;23.334;2023-07-16T05:55:21;947.9;;;33.9;50.5
40013;BME280;37387;42.672;23.334;2023-07-16T05:56:21;947.9;;;34.4;51.0
40013;BME280;37387;42.672;23.334;2023-07-16T05:57:21;947.9;;;33.3;49.4
40013;BME280;37387;42.672;23.334;2023-07-16T05:58:21;947.9;;;34.0;52.3
40013;BME280;37387;42.672;23.334;2023-07-16T05:59:21;947.9;;;34.2;50.8
40013;BME280;37387;42.672;23.334;2023-07-16T06:00:21;947.9;;;34.5;49.4
40013;BME280;37387;42.672;23.334;2023-07-16T06:01:21;947.9;;;34.7;48.5
40013;BME280;37387;42.672;23.334;2023-07-16T06:03:21;947.9;;;34.3;47.8
40013;BME280;37387;42.672;23.334;2023-07-16T06:04:21;947.9;;;34.5;47.9
40013;BME280;37387;42.672;23.334;2023-07-16T06:05:22;947.9;;;34.8;47.9
40013;BME280;37387;42.672;23.334;2023-07-16T06:06:21;947.9;;;34.5;47.8
40013;BME280;37387;42.672;23.334;2023-07-16T06:07:21;947.9;;;34.8;47.8
40013;BME280;37387;42.672;23.334;2023-07-16T06:08:21;947.9;;;35.1;47.7
40013;BME280;37387;42.672;23.334;2023-07-16T06:09:21;947.9;;;34.5;47.5
40013;BME280;37387;42.672;23.334;2023-07-16T06:10:21;947.9;;;34.3;49.1
40013;BME280;37387;42.672;23.334;2023-07-16T06:11:21;947.9;;;34.2;49.1
40013;BME280;37387;42.672;23.334;2023-07-16T06:12:21;947.9;;;34.8;49.1
40013;BME280;37387;42.672;23.334;2023-07-16T06:13:21;947.9;;;35.0;48.2
40013;BME280;37387;42.672;23.334;2023-07-16T06:14:21;947.9;;;34.2;47.7
40013;BME280;37387;42.672;23.334;2023-07-16T06:15:21;947.9;;;33.9;49.8
40013;BME280;37387;42.672;23.334;2023-07-16T06:16:21;947.9;;;34.1;50.8
40013;BME280;37387;42.672;23.334;2023-07-16T06:17:21;947.9;;;34.3;50.1
40013;BME280;37387;42.672;23.334;2023-07-16T06:18:21;947.9;;;34.4;49.5
40013;BME280;37387;42.672;23.334;2023-07-16T06:19:21;947.9;;;35.0;49.5
40013;BME280;37387;42.672;23.334;2023-07-16T06:20:21;947.9;;;35.4;48.6
40013;BME280;37387;42.672;23.334;2023-07-16T06:21:21;947.9;;;35.0;47.7
40013;BME280;37387;42.672;23.334;2023-07-16T06:22:21;947.9;;;33.6;47.7
40013;BME280;37387;42.672;23.334;2023-07-16T06:24:21;947.9;;;33.3;52.8
40013;BME280;37387;42.672;23.334;2023-07-16T06:25:21;947.8;;;33.1;52.8
40013;BME280;37387;42.672;23.334;2023-07-16T06:26:21;947.8;;;32.5;52.8
40013;BME280;37387;42.672;23.334;2023-07-16T06:27:21;947.9;;;33.2;54.9
40013;BME280;37387;42.672;23.334;2023-07-16T06:28:21;947.8;;;33.7;53.9
40013;BME280;37387;42.672;23.334;2023-07-16T06:29:21;947.8;;;33.6;53.0
40013;BME280;37387;42.672;23.334;2023-07-16T06:30:21;947.8;;;33.7;53.4
40013;BME280;37387;42.672;23.334;2023-07-16T06:31:21;947.9;;;33.8;51.0
40013;BME280;37387;42.672;23.334;2023-07-16T06:32:21;947.9;;;34.5;49.2
40013;BME280;37387;42.672;23.334;2023-07-16T06:33:21;947.9;;;33.2;49.2
40013;BME280;37387;42.672;23.334;2023-07-16T06:34:21;947.8;;;33.7;52.6
40013;BME280;37387;42.672;23.334;2023-07-16T06:35:21;947.8;;;35.0;51.8
40013;BME280;37387;42.672;23.334;2023-07-16T06:36:21;947.9;;;35.2;48.8
40013;BME280;37387;42.672;23.334;2023-07-16T06:37:21;947.9;;;35.0;47.9
40013;BME280;37387;42.672;23.334;2023-07-16T06:38:21;947.8;;;34.9;47.8
40013;BME280;37387;42.672;23.334;2023-07-16T06:39:21;947.9;;;34.7;47.6
40013;BME280;37387;42.672;23.334;2023-07-16T06:40:21;947.8;;;34.5;48.9
40013;BME280;37387;42.672;23.334;2023-07-16T06:41:21;947.8;;;33.3;48.9
40013;BME280;37387;42.672;23.334;2023-07-16T06:42:21;947.8;;;33.8;51.1
40013;BME280;37387;42.672;23.334;2023-07-16T06:43:21;947.8;;;34.8;50.9
40013;BME280;37387;42.672;23.334;2023-07-16T06:44:21;947.8;;;34.9;48.1
40013;BME280;37387;42.672;23.334;2023-07-16T06:45:21;947.8;;;35.0;47.5
40013;BME280;37387;42.672;23.334;2023-07-16T06:46:21;947.8;;;35.1;47.0
40013;BME280;37387;42.672;23.334;2023-07-16T06:47:21;947.8;;;34.9;47.1
40013;BME280;37387;42.672;23.334;2023-07-16T06:48:21;947.8;;;35.0;47.9
40013;BME280;37387;42.672;23.334;2023-07-16T06:49:21;947.8;;;34.6;48.1
40013;BME280;37387;42.672;23.334;2023-07-16T06:50:21;947.8;;;33.8;48.6
40013;BME280;37387;42.672;23.334;2023-07-16T06:51:21;947.7;;;33.5;51.0
40013;BME280;37387;42.672;23.334;2023-07-16T06:52:21;947.7;;;34.0;52.7
40013;BME280;37387;42.672;23.334;2023-07-16T06:53:21;947.7;;;33.9;50.7
40013;BME280;37387;42.672;23.334;2023-07-16T06:54:21;947.7;;;34.2;50.2
40013;BME280;37387;42.672;23.334;2023-07-16T06:55:21;947.7;;;35.1;50.4
40013;BME280;37387;42.672;23.334;2023-07-16T06:56:21;947.8;;;35.6;48.0
40013;BME280;37387;42.672;23.334;2023-07-16T06:57:21;947.8;;;35.7;46.8
40013;BME280;37387;42.672;23.334;2023-07-16T06:58:23;947.8;;;35.8;46.0
40013;BME280;37387;42.672;23.334;2023-07-16T06:59:21;947.8;;;35.0;46.4
40013;BME280;37387;42.672;23.334;2023-07-16T07:00:21;947.7;;;35.9;46.9
40013;BME280;37387;42.672;23.334;2023-07-16T07:01:21;947.8;;;36.2;45.5
40013;BME280;37387;42.672;23.334;2023-07-16T07:02:21;947.8;;;35.2;44.9
40013;BME280;37387;42.672;23.334;2023-07-16T07:03:21;947.7;;;36.0;46.2
40013;BME280;37387;42.672;23.334;2023-07-16T07:04:21;947.8;;;35.1;44.9
40013;BME280;37387;42.672;23.334;2023-07-16T07:05:21;947.7;;;35.7;46.3
40013;BME280;37387;42.672;23.334;2023-07-16T07:06:21;947.8;;;34.8;45.5
40013;BME280;37387;42.672;23.334;2023-07-16T07:07:21;947.7;;;35.0;46.8
40013;BME280;37387;42.672;23.334;2023-07-16T07:08:21;947.7;;;32.7;47.2
40013;BME280;37387;42.672;23.334;2023-07-16T07:09:21;947.7;;;31.8;51.7
40013;BME280;37387;42.672;23.334;2023-07-16T07:10:21;947.7;;;33.3;56.5
40013;BME280;37387;42.672;23.334;2023-07-16T07:11:21;947.7;;;34.5;53.2
40013;BME280;37387;42.672;23.334;2023-07-16T07:12:21;947.7;;;35.3;48.8
40013;BME280;37387;42.672;23.334;2023-07-16T07:13:21;947.7;;;36.3;46.8
40013;BME280;37387;42.672;23.334;2023-07-16T07:16:21;947.8;;;36.8;42.8
40013;BME280;37387;42.672;23.334;2023-07-16T07:17:21;947.8;;;37.2;42.8
40013;BME280;37387;42.672;23.334;2023-07-16T07:18:21;947.8;;;37.0;42.4
40013;BME280;37387;42.672;23.334;2023-07-16T07:19:21;947.7;;;37.5;42.4
40013;BME280;37387;42.672;23.334;2023-07-16T07:20:21;947.8;;;36.8;42.5
40013;BME280;37387;42.672;23.334;2023-07-16T07:21:21;947.8;;;34.1;42.5
40013;BME280;37387;42.672;23.334;2023-07-16T07:22:21;947.7;;;34.6;48.2
40013;BME280;37387;42.672;23.334;2023-07-16T07:23:21;947.7;;;34.2;48.2
40013;BME280;37387;42.672;23.334;2023-07-16T07:24:21;947.7;;;34.4;48.2
40013;BME280;37387;42.672;23.334;2023-07-16T07:25:21;947.7;;;34.8;48.7
40013;BME280;37387;42.672;23.334;2023-07-16T07:26:21;947.7;;;35.8;48.1
40013;BME280;37387;42.672;23.334;2023-07-16T07:28:21;947.7;;;34.4;45.7
40013;BME280;37387;42.672;23.334;2023-07-16T07:29:21;947.7;;;32.1;48.0
40013;BME280;37387;42.672;23.334;2023-07-16T07:30:21;947.6;;;31.2;54.5
40013;BME280;37387;42.672;23.334;2023-07-16T07:31:21;947.6;;;32.9;58.3
40013;BME280;37387;42.672;23.334;2023-07-16T07:32:21;947.6;;;32.8;54.4
40013;BME280;37387;42.672;23.334;2023-07-16T07:33:21;947.6;;;32.1;53.6
40013;BME280;37387;42.672;23.334;2023-07-16T07:34:21;947.6;;;33.0;55.8
40013;BME280;37387;42.672;23.334;2023-07-16T07:35:21;947.6;;;34.0;53.9
40013;BME280;37387;42.672;23.334;2023-07-16T07:38:21;947.6;;;34.8;50.4
40013;BME280;37387;42.672;23.334;2023-07-16T07:39:21;947.6;;;35.2;48.2
40013;BME280;37387;42.672;23.334;2023-07-16T07:40:21;947.6;;;35.3;47.6
40013;BME280;37387;42.672;23.334;2023-07-16T07:41:21;947.6;;;35.1;47.6
40013;BME280;37387;42.672;23.334;2023-07-16T07:42:21;947.6;;;35.2;47.6
40013;BME280;37387;42.672;23.334;2023-07-16T07:43:21;947.7;;;35.8;48.2
40013;BME280;37387;42.672;23.334;2023-07-16T07:45:21;947.7;;;36.0;44.7
40013;BME280;37387;42.672;23.334;2023-07-16T07:46:21;947.7;;;35.3;44.2
40013;BME280;37387;42.672;23.334;2023-07-16T07:47:21;947.7;;;35.5;45.5
40013;BME280;37387;42.672;23.334;2023-07-16T07:48:21;947.7;;;35.4;45.5
40013;BME280;37387;42.672;23.334;2023-07-16T07:49:21;947.6;;;34.1;46.0
40013;BME280;37387;42.672;23.334;2023-07-16T07:50:21;947.6;;;33.9;48.6
40013;BME280;37387;42.672;23.334;2023-07-16T07:51:21;947.6;;;35.2;49.6
40013;BME280;37387;42.672;23.334;2023-07-16T07:52:21;947.6;;;35.8;45.0
40013;BME280;37387;42.672;23.334;2023-07-16T07:53:21;947.6;;;35.7;45.0
40013;BME280;37387;42.672;23.334;2023-07-16T07:54:21;947.6;;;34.6;45.4
40013;BME280;37387;42.672;23.334;2023-07-16T07:55:21;947.6;;;34.0;47.8
40013;BME280;37387;42.672;23.334;2023-07-16T07:56:21;947.6;;;34.6;49.9
40013;BME280;37387;42.672;23.334;2023-07-16T07:57:21;947.6;;;34.8;49.0
40013;BME280;37387;42.672;23.334;2023-07-16T07:58:21;947.6;;;34.4;48.7
40013;BME280;37387;42.672;23.334;2023-07-16T07:59:21;947.5;;;34.5;48.8
40013;BME280;37387;42.672;23.334;2023-07-16T08:00:21;947.6;;;34.1;49.5
40013;BME280;37387;42.672;23.334;2023-07-16T08:01:21;947.6;;;34.2;49.2
40013;BME280;37387;42.672;23.334;2023-07-16T08:02:21;947.5;;;33.7;48.6
40013;BME280;37387;42.672;23.334;2023-07-16T08:03:22;947.5;;;34.7;50.6
40013;BME280;37387;42.672;23.334;2023-07-16T08:04:21;947.6;;;35.8;48.4
40013;BME280;37387;42.672;23.334;2023-07-16T08:05:21;947.6;;;36.5;45.8
40013;BME280;37387;42.672;23.334;2023-07-16T08:06:21;947.7;;;36.7;44.8
40013;BME280;37387;42.672;23.334;2023-07-16T08:07:21;947.7;;;36.8;44.0
40013;BME280;37387;42.672;23.334;2023-07-16T08:08:21;947.6;;;36.4;43.5
40013;BME280;37387;42.672;23.334;2023-07-16T08:09:21;947.6;;;35.9;44.9
40013;BME280;37387;42.672;23.334;2023-07-16T08:10:21;947.6;;;35.3;44.9
40013;BME280;37387;42.672;23.334;2023-07-16T08:11:21;947.6;;;35.6;47.0
40013;BME280;37387;42.672;23.334;2023-07-16T08:12:21;947.6;;;35.7;46.3
40013;BME280;37387;42.672;23.334;2023-07-16T08:13:21;947.6;;;35.6;45.7
40013;BME280;37387;42.672;23.334;2023-07-16T08:14:21;947.6;;;36.1;46.3
40013;BME280;37387;42.672;23.334;2023-07-16T08:15:21;947.6;;;35.7;45.6
40013;BME280;37387;42.672;23.334;2023-07-16T08:16:21;947.6;;;35.2;46.8
40013;BME280;37387;42.672;23.334;2023-07-16T08:17:21;947.5;;;34.1;46.8
40013;BME280;37387;42.672;23.334;2023-07-16T08:18:21;947.6;;;34.6;49.6
40013;BME280;37387;42.672;23.334;2023-07-16T08:19:21;947.6;;;35.2;49.2
40013;BME280;37387;42.672;23.334;2023-07-16T08:20:21;947.6;;;34.8;48.0
40013;BME280;37387;42.672;23.334;2023-07-16T08:21:21;947.6;;;34.9;48.7
40013;BME280;37387;42.672;23.334;2023-07-16T08:22:21;947.5;;;34.4;47.2
40013;BME280;37387;42.672;23.334;2023-07-16T08:23:21;947.5;;;34.3;48.5
40013;BME280;37387;42.672;23.334;2023-07-16T08:24:21;947.5;;;35.2;48.5
40013;BME280;37387;42.672;23.334;2023-07-16T08:25:21;947.6;;;36.0;47.1
40013;BME280;37387;42.672;23.334;2023-07-16T08:26:21;947.7;;;36.1;45.6
40013;BME280;37387;42.672;23.334;2023-07-16T08:27:21;947.6;;;36.3;44.2
40013;BME280;37387;42.672;23.334;2023-07-16T08:29:21;947.6;;;36.6;44.1
40013;BME280;37387;42.672;23.334;2023-07-16T08:31:21;947.6;;;36.7;43.5
40013;BME280;37387;42.672;23.334;2023-07-16T08:32:21;947.6;;;36.8;43.5